EGLL/LHR METAR and TAF weather

Enter ICAO airport designator
Station Type Date Time Source
EGLL METAR 2022/01/25 05:20 UTC NOAA

EGLL 250520Z AUTO 08002KT 9000 OVC009 02/00 Q1034


Station Type Date Time Source
EGLL Decoded METAR 2022/01/25 05:20 UTC NOAA

London / Heathrow Airport, United Kingdom (EGLL) 51-29N 000-27W 0M
Jan 25, 2022 - 12:20 AM EST / 2022.01.25 0520 UTC
Wind: from the E (080 degrees) at 2 MPH (2 KT):0
Visibility: 5 mile(s):0
Sky conditions: overcast
Temperature: 35 F (2 C)
Dew Point: 32 F (0 C)
Relative Humidity: 86%
Pressure (altimeter): 30.53 in. Hg (1034 hPa)
ob: EGLL 250520Z AUTO 08002KT 9000 OVC009 02/00 Q1034
cycle: 5

Station Type Date Time Source
EGLL TAF 2022/01/25 06:09 UTC NOAA

TAF EGLL 250455Z 2506/2612 VRB03KT 9999 OVC011
TEMPO 2506/2515 9000 BKN009 PROB40
TEMPO 2515/2611 8000
BECMG 2518/2521 OVC016

Example: see airport list